Punta Gorda, FL

9:36 PM EST en Enero 29, 2015 (GMT -0500)
Charlotte County | Change Station
CLOSE
Current Station
Aeropuerto
Location: Punta Gorda,
Altura: 26 ft
Estaciones meteorológicas cercanas

Alt 26 ft 26.92 °N, 81.99 °W | Updated 43 minutes ago

Despejado
Despejado
58 ° F
Sensación térmica 58 ° F
N
6
Viento Variable Viento desde NO

Hoy
Alta -- | Baja -- ° F
--% Posibilidad de precipitaciones
Ayer
Alta -- | Baja -- ° F
Precip. -- pul
7:14 AM 6:07 PM
Gibosa creciente, 79% visible
Presión 30.26 pul
Visibilidad 10.0 Millas
Nubes Despejado
Punto de rocío 49 ° F
Humedad 72%
Precipitaciones 0.00 pul
Espesor de la nieve No disponible.
UV 0 de una escala de 12
Polen 8.90 de una escala de 12
Calidad del aire No disponible.
Flu Activity No disponible.
METAR KPGD 300153Z AUTO 31005KT 10SM CLR 14/09 A3026 RMK AO2 SLP247 T01440094

More Conditions Fewer Conditions

Presión 30.26 pul
Visibilidad 10.0 Millas
Nubes Despejado
Punto de rocío 49 ° F
Humedad 72%
Precipitaciones 0.00 pul
Espesor de la nieve No disponible.
UV 0 de una escala de 12
Polen 8.90 de una escala de 12
Calidad del aire No disponible.
Flu Activity No disponible.
METAR KPGD 300153Z AUTO 31005KT 10SM CLR 14/09 A3026 RMK AO2 SLP247 T01440094

More Conditions Fewer Conditions

10-Day Weather Forecast

Almanac

Astronomía

Jan. 29, 2015 Salida Puesta
Hora real
Crepúsculo civil
Crepúsculo náutico
Crepúsculo astronómico
Luna
Horas de luz
Horas de luz
Tomorrow will be .
, % of the Moon is Illuminated

Extremos de hoy

Máximos del estado Bajos del estado

Community

WunderPhotos

Upload Photos

1,791,695 ¡fotos cargadas!

WunderBlogs® & News

Nearby

Calidad del aire

  Calidad del aire Índice AQ Contaminante
Not available.

Grosos de nieve

Estación Profundido Altura

Actividad de terremotos

Ciudad Distance Mag. Tiempo y dato
Magnitud mínima muestra es 2,5.

Temperaturas de aguas costeras

Lugar Temperatura

Estaciones meteorológicas cercanas